Time;durP1;ratioP1;P1;durP2;ratioP2;P2;SDS_P1;SDS_P2;PMS_P1;PMS_P2;Temp;Humidity;BMP_temperature;BMP_pressure;BME280_temperature;BME280_humidity;BME280_pressure;Samples;Min_cycle;Max_cycle;Signal;HPM_P1;HPM_P2
2023/07/24 00:02:21;;;;;;;;;2.00;2.00;;;;;21.96;100.00;100381.28;5035110;28;45280;-84
2023/07/24 00:04:47;;;;;;;;;3.00;3.00;;;;;21.98;100.00;100377.56;5031934;28;54779;-83
2023/07/24 00:07:12;;;;;;;;;2.33;2.33;;;;;21.97;100.00;100365.09;5034314;28;46304;-83
2023/07/24 00:09:37;;;;;;;;;4.00;2.33;;;;;22.00;100.00;100374.84;5035762;28;66946;-85
2023/07/24 00:12:03;;;;;;;;;4.00;4.00;;;;;21.97;100.00;100377.66;5035019;28;62365;-83
2023/07/24 00:14:28;;;;;;;;;2.67;2.67;;;;;21.97;100.00;100372.28;5036259;28;45601;-85
2023/07/24 00:16:54;;;;;;;;;3.00;1.67;;;;;21.96;100.00;100359.78;5035018;28;67071;-83
2023/07/24 00:19:19;;;;;;;;;1.67;1.67;;;;;21.99;100.00;100362.31;5033533;28;64560;-83
2023/07/24 00:21:44;;;;;;;;;2.00;2.00;;;;;21.97;100.00;100359.69;5036183;28;45325;-84
2023/07/24 00:24:10;;;;;;;;;4.00;2.00;;;;;21.96;100.00;100368.72;5035448;28;46779;-83
2023/07/24 00:26:35;;;;;;;;;2.33;2.00;;;;;21.93;100.00;100352.69;5034510;28;67876;-85
2023/07/24 00:29:00;;;;;;;;;5.67;3.00;;;;;21.94;100.00;100359.84;5035296;28;64070;-85
2023/07/24 00:31:26;;;;;;;;;4.00;3.00;;;;;21.93;100.00;100346.47;5035495;28;45436;-83
2023/07/24 00:33:51;;;;;;;;;2.00;2.00;;;;;21.94;100.00;100351.78;5035194;28;45370;-83
2023/07/24 00:36:17;;;;;;;;;2.33;2.33;;;;;21.94;100.00;100343.72;5034762;28;62094;-83
2023/07/24 00:38:42;;;;;;;;;1.33;1.33;;;;;21.93;100.00;100331.19;5034939;28;64572;-83
2023/07/24 00:41:07;;;;;;;;;2.67;2.00;;;;;21.93;100.00;100328.50;5034317;28;62833;-85
2023/07/24 00:43:33;;;;;;;;;2.00;2.00;;;;;21.92;100.00;100307.94;5033106;28;59253;-83
2023/07/24 00:45:58;;;;;;;;;4.00;1.67;;;;;21.91;100.00;100273.09;5035784;28;46490;-83
2023/07/24 00:48:23;;;;;;;;;1.67;1.67;;;;;21.90;100.00;100272.22;5033597;28;45391;-83
2023/07/24 00:50:49;;;;;;;;;1.67;1.67;;;;;21.90;100.00;100276.72;5034065;28;59329;-83
2023/07/24 00:53:15;;;;;;;;;2.00;2.00;;;;;21.88;100.00;100268.69;5017613;28;45478;-83
2023/07/24 00:55:42;;;;;;;;;2.00;2.00;;;;;21.91;100.00;100267.72;5034423;28;46530;-83
2023/07/24 00:58:08;;;;;;;;;2.00;2.00;;;;;21.89;100.00;100273.16;5035338;28;45193;-86
2023/07/24 01:00:33;;;;;;;;;4.67;2.00;;;;;21.91;100.00;100289.22;5037629;28;56468;-84
2023/07/24 01:02:59;;;;;;;;;3.33;2.00;;;;;21.89;100.00;100285.69;5034831;28;45339;-83
2023/07/24 01:05:25;;;;;;;;;4.00;2.67;;;;;21.91;100.00;100300.84;5036746;28;46793;-83
2023/07/24 01:07:52;;;;;;;;;2.00;2.00;;;;;21.89;100.00;100304.50;5037576;28;45494;-83
2023/07/24 01:10:17;;;;;;;;;3.33;2.00;;;;;21.89;100.00;100305.41;5032899;28;45951;-83
2023/07/24 01:12:51;;;;;;;;;3.67;2.00;;;;;21.90;100.00;100304.47;5039269;28;45301;-84
2023/07/24 01:15:26;;;;;;;;;2.33;2.33;;;;;21.89;100.00;100310.78;5037691;28;46428;-83
2023/07/24 01:17:59;;;;;;;;;3.00;3.00;;;;;21.85;100.00;100322.63;5020214;28;45310;-81
2023/07/24 01:20:26;;;;;;;;;3.00;3.00;;;;;21.81;100.00;100323.69;5028978;28;45277;-83
2023/07/24 01:23:11;;;;;;;;;4.00;2.00;;;;;21.77;100.00;100313.13;5038941;28;45459;-83
2023/07/24 01:25:58;;;;;;;;;4.00;3.00;;;;;21.77;100.00;100308.63;5034264;28;45556;-82
2023/07/24 01:28:24;;;;;;;;;3.67;2.00;;;;;21.79;100.00;100325.56;5034044;28;45542;-83
2023/07/24 01:30:49;;;;;;;;;3.00;2.00;;;;;21.75;100.00;100323.94;5037447;28;45263;-83
2023/07/24 01:33:15;;;;;;;;;5.00;2.00;;;;;21.75;100.00;100317.72;5038826;28;45346;-86
2023/07/24 01:35:43;;;;;;;;;3.00;3.00;;;;;21.71;100.00;100311.56;5036634;28;46340;-83
2023/07/24 01:38:09;;;;;;;;;5.33;3.33;;;;;21.71;100.00;100319.63;5037720;28;45390;-82
2023/07/24 01:40:34;;;;;;;;;0.00;0.00;;;;;21.64;100.00;100312.78;5037040;28;45455;-83
2023/07/24 01:43:00;;;;;;;;;3.00;3.00;;;;;21.60;100.00;100311.16;5036912;28;57244;-84
2023/07/24 01:45:25;;;;;;;;;3.33;3.33;;;;;21.58;100.00;100303.19;5035897;28;69497;-84
2023/07/24 01:47:50;;;;;;;;;5.33;3.00;;;;;21.56;100.00;100294.28;5036533;28;68570;-85
2023/07/24 01:50:16;;;;;;;;;3.00;1.00;;;;;21.52;100.00;100278.38;5036510;28;61683;-84
2023/07/24 01:52:41;;;;;;;;;5.33;2.67;;;;;21.52;100.00;100271.22;5037705;28;54582;-81
2023/07/24 01:55:07;;;;;;;;;3.00;1.67;;;;;21.53;100.00;100264.91;5037708;28;45897;-82
2023/07/24 01:57:32;;;;;;;;;0.00;0.00;;;;;21.52;100.00;100273.00;5036370;28;45474;-83
2023/07/24 01:59:57;;;;;;;;;2.33;2.33;;;;;21.52;100.00;100275.69;5036886;28;45542;-82
2023/07/24 02:02:23;;;;;;;;;2.00;2.00;;;;;21.51;100.00;100265.88;5037423;28;46791;-82
2023/07/24 02:04:48;;;;;;;;;2.00;2.00;;;;;21.49;100.00;100276.69;5037645;28;59507;-85
2023/07/24 02:07:13;;;;;;;;;3.00;3.00;;;;;21.48;100.00;100277.66;5034815;28;67345;-82
2023/07/24 02:09:39;;;;;;;;;3.67;3.67;;;;;21.49;100.00;100278.53;5036843;28;63467;-83
2023/07/24 02:12:05;;;;;;;;;4.33;3.00;;;;;21.49;100.00;100282.06;4992718;28;45504;-83
2023/07/24 02:14:30;;;;;;;;;4.00;4.00;;;;;21.50;100.00;100282.94;5034058;28;47572;-82
2023/07/24 02:16:55;;;;;;;;;2.67;2.67;;;;;21.49;100.00;100255.22;5037833;28;45288;-82
2023/07/24 02:19:21;;;;;;;;;2.00;2.00;;;;;21.50;100.00;100261.47;5037362;28;45347;-82
2023/07/24 02:21:46;;;;;;;;;2.00;1.67;;;;;21.48;100.00;100274.97;5037049;28;59444;-83
2023/07/24 02:24:11;;;;;;;;;3.00;3.00;;;;;21.48;100.00;100274.09;5037456;28;46430;-84
2023/07/24 02:26:37;;;;;;;;;3.00;3.00;;;;;21.50;100.00;100282.94;5028770;28;66609;-82
2023/07/24 02:29:02;;;;;;;;;3.00;3.00;;;;;21.48;100.00;100279.47;5027371;28;63846;-81
2023/07/24 02:31:27;;;;;;;;;4.00;2.33;;;;;21.50;100.00;100288.31;5037200;28;45619;-85
2023/07/24 02:33:53;;;;;;;;;3.00;3.00;;;;;21.48;100.00;100283.03;5037680;28;46606;-84
2023/07/24 02:36:18;;;;;;;;;3.33;3.00;;;;;21.46;100.00;100274.13;5037433;28;45324;-83
2023/07/24 02:38:43;;;;;;;;;4.33;3.33;;;;;21.48;100.00;100268.72;5036706;28;60573;-84
2023/07/24 02:41:09;;;;;;;;;2.00;2.00;;;;;21.45;100.00;100275.94;5037753;28;45644;-83
2023/07/24 02:43:34;;;;;;;;;4.00;4.00;;;;;21.44;100.00;100265.28;5022733;28;69274;-82
2023/07/24 02:46:02;;;;;;;;;2.00;2.00;;;;;21.43;100.00;100256.34;5035339;28;69945;-82
2023/07/24 02:48:28;;;;;;;;;5.33;3.33;;;;;21.47;100.00;100267.84;5035343;28;60263;-83
2023/07/24 02:50:54;;;;;;;;;3.00;2.00;;;;;21.44;100.00;100270.66;5036511;28;45333;-82
2023/07/24 02:53:19;;;;;;;;;3.67;3.00;;;;;21.43;100.00;100267.09;5036839;28;59419;-86
2023/07/24 02:55:45;;;;;;;;;3.33;2.67;;;;;21.36;100.00;100254.88;5036380;28;45330;-82
2023/07/24 02:58:13;;;;;;;;;6.00;2.33;;;;;21.38;100.00;100268.22;5035958;28;45387;-82
2023/07/24 03:00:39;;;;;;;;;3.00;3.00;;;;;21.36;100.00;100278.16;5037573;28;45162;-82
2023/07/24 03:03:05;;;;;;;;;3.00;2.00;;;;;21.36;100.00;100294.25;5030012;28;48289;-83
2023/07/24 03:05:31;;;;;;;;;3.33;3.00;;;;;21.33;100.00;100302.47;5036761;28;45518;-82
2023/07/24 03:07:56;;;;;;;;;3.00;3.00;;;;;21.29;100.00;100298.13;5037064;28;45439;-82
2023/07/24 03:10:22;;;;;;;;;4.67;3.00;;;;;21.27;100.00;100308.06;5036546;28;61475;-83
2023/07/24 03:12:48;;;;;;;;;5.00;3.67;;;;;21.19;100.00;100301.19;5032354;28;46708;-82
2023/07/24 03:15:13;;;;;;;;;2.67;2.67;;;;;21.10;100.00;100292.66;5034125;28;67273;-82
2023/07/24 03:17:38;;;;;;;;;5.33;4.33;;;;;21.02;100.00;100286.72;5034991;28;45315;-82
2023/07/24 03:20:15;;;;;;;;;3.00;3.00;;;;;20.98;100.00;100282.41;5035798;28;58936;-83
2023/07/24 03:22:41;;;;;;;;;2.33;2.33;;;;;20.93;100.00;100279.91;5047042;28;45632;-82
2023/07/24 03:25:07;;;;;;;;;2.67;2.00;;;;;20.87;100.00;100264.91;5035738;28;45684;-83
2023/07/24 03:27:33;;;;;;;;;3.67;3.67;;;;;20.87;100.00;100288.19;5036996;28;45492;-82
2023/07/24 03:29:58;;;;;;;;;4.00;4.00;;;;;20.81;100.00;100278.59;5029732;28;45396;-83
2023/07/24 03:32:23;;;;;;;;;2.00;2.00;;;;;20.82;100.00;100287.50;5034356;28;72077;-83
2023/07/24 03:34:48;;;;;;;;;3.67;3.67;;;;;20.79;100.00;100296.56;5035765;28;67673;-83
2023/07/24 03:37:14;;;;;;;;;2.33;2.33;;;;;20.80;100.00;100292.94;5035862;28;59293;-84
2023/07/24 03:39:39;;;;;;;;;4.00;3.33;;;;;20.79;100.00;100280.47;5036734;28;45431;-83
2023/07/24 03:42:05;;;;;;;;;3.00;3.00;;;;;20.81;100.00;100297.38;5030894;28;66586;-84
2023/07/24 03:44:30;;;;;;;;;3.67;2.33;;;;;20.75;100.00;100284.19;5026408;28;46744;-82
2023/07/24 03:46:55;;;;;;;;;4.67;3.00;;;;;20.67;100.00;100284.53;5035304;28;61112;-84
2023/07/24 03:49:22;;;;;;;;;2.00;2.00;;;;;20.62;100.00;100261.50;5037107;28;45569;-83
2023/07/24 03:51:47;;;;;;;;;5.00;3.33;;;;;20.57;100.00;100258.13;5033663;28;47740;-82
2023/07/24 03:54:13;;;;;;;;;3.00;2.33;;;;;20.57;100.00;100250.06;5027574;28;45473;-84
2023/07/24 03:56:38;;;;;;;;;3.67;3.33;;;;;20.59;100.00;100256.22;5027670;28;63862;-82
2023/07/24 03:59:03;;;;;;;;;3.00;2.00;;;;;20.57;100.00;100255.44;5034529;28;45452;-85
2023/07/24 04:01:29;;;;;;;;;3.00;3.00;;;;;20.59;100.00;100256.22;5036005;28;56345;-83
2023/07/24 04:03:54;;;;;;;;;3.00;3.00;;;;;20.57;100.00;100258.13;5033672;28;67277;-84
2023/07/24 04:06:19;;;;;;;;;7.00;5.00;;;;;20.58;100.00;100266.09;5034955;28;45396;-84
2023/07/24 04:08:45;;;;;;;;;2.00;2.00;;;;;20.56;100.00;100259.03;5034119;28;57270;-83
2023/07/24 04:11:10;;;;;;;;;4.00;4.00;;;;;20.61;100.00;100273.13;5036198;28;46453;-83
2023/07/24 04:13:35;;;;;;;;;4.67;3.00;;;;;20.60;100.00;100261.53;5033844;28;45437;-82
2023/07/24 04:16:01;;;;;;;;;5.33;3.00;;;;;20.64;100.00;100271.22;5033904;28;61241;-83
2023/07/24 04:18:26;;;;;;;;;2.33;2.33;;;;;20.69;100.00;100272.84;5034049;28;48563;-83
2023/07/24 04:20:51;;;;;;;;;4.00;2.67;;;;;20.70;100.00;100279.94;5035115;28;68739;-85
2023/07/24 04:23:17;;;;;;;;;4.00;4.00;;;;;20.73;100.00;100267.31;5033693;28;60336;-83
2023/07/24 04:25:42;;;;;;;;;5.00;3.00;;;;;20.79;100.00;100271.53;5028942;28;45722;-83
2023/07/24 04:28:07;;;;;;;;;2.00;2.00;;;;;20.77;100.00;100255.50;5035613;28;45201;-83
2023/07/24 04:30:33;;;;;;;;;3.00;3.00;;;;;20.78;100.00;100261.75;5035790;28;46515;-83
2023/07/24 04:32:58;;;;;;;;;4.00;2.33;;;;;20.76;100.00;100248.38;5033698;28;67279;-83
2023/07/24 04:35:23;;;;;;;;;4.00;2.67;;;;;20.74;100.00;100244.91;5038871;28;50416;-83
2023/07/24 04:37:51;;;;;;;;;3.00;3.00;;;;;20.74;100.00;100246.72;5038967;28;61270;-86
2023/07/24 04:40:16;;;;;;;;;4.00;2.00;;;;;20.69;100.00;100248.69;5025210;28;48564;-81
2023/07/24 04:42:41;;;;;;;;;2.67;2.67;;;;;20.68;100.00;100258.56;5038868;28;59871;-82
2023/07/24 04:45:07;;;;;;;;;2.67;2.67;;;;;20.65;100.00;100253.31;5019111;28;65685;-83
2023/07/24 04:47:33;;;;;;;;;3.00;2.00;;;;;20.70;100.00;100264.72;5039779;28;45525;-83
2023/07/24 04:49:58;;;;;;;;;5.00;2.00;;;;;20.67;100.00;100255.00;5018072;28;67532;-85
2023/07/24 04:52:23;;;;;;;;;4.00;2.33;;;;;20.69;100.00;100260.31;5037925;28;45329;-83
2023/07/24 04:54:49;;;;;;;;;3.33;3.33;;;;;20.71;100.00;100260.22;5038703;28;62386;-85
2023/07/24 04:57:14;;;;;;;;;2.00;2.00;;;;;20.73;100.00;100274.47;5023244;28;61918;-83
2023/07/24 04:59:39;;;;;;;;;2.00;2.00;;;;;20.71;100.00;100270.97;5033273;28;68129;-84
2023/07/24 05:02:05;;;;;;;;;2.00;2.00;;;;;20.66;100.00;100263.09;5038306;28;58301;-83
2023/07/24 05:04:30;;;;;;;;;3.00;2.00;;;;;20.65;100.00;100261.34;5035052;28;45442;-83
2023/07/24 05:06:55;;;;;;;;;2.67;1.33;;;;;20.66;100.00;100263.09;5038464;28;59801;-83
2023/07/24 05:09:21;;;;;;;;;2.00;2.00;;;;;20.67;100.00;100264.88;5036495;28;68035;-85
2023/07/24 05:11:46;;;;;;;;;2.00;2.00;;;;;20.71;100.00;100270.97;5038953;28;48107;-83
2023/07/24 05:14:11;;;;;;;;;2.67;2.00;;;;;20.73;100.00;100266.44;5037131;28;45329;-83
2023/07/24 05:19:09;;;;;;;;;1.00;1.00;;;;;20.77;100.00;100266.22;5032785;28;46626;-84
2023/07/24 05:21:35;;;;;;;;;2.67;2.67;;;;;20.78;100.00;100264.44;5012435;28;55061;-86
2023/07/24 05:24:00;;;;;;;;;1.00;1.00;;;;;20.81;100.00;100261.63;5018322;28;62803;-86
2023/07/24 05:26:25;;;;;;;;;3.00;3.00;;;;;20.82;100.00;100253.50;5011148;28;65258;-84
2023/07/24 05:28:52;;;;;;;;;1.33;1.33;;;;;20.88;100.00;100260.44;5025865;28;45664;-86
2023/07/24 05:31:18;;;;;;;;;2.00;2.00;;;;;20.88;100.00;100260.44;5022524;28;45285;-83
2023/07/24 05:33:43;;;;;;;;;3.00;2.00;;;;;20.87;100.00;100259.56;5037280;28;45528;-84
2023/07/24 05:36:08;;;;;;;;;2.00;2.00;;;;;20.90;100.00;100255.88;5038146;28;58422;-84
2023/07/24 05:38:34;;;;;;;;;2.33;1.00;;;;;20.93;100.00;100256.66;5019652;28;65070;-84
2023/07/24 05:41:01;;;;;;;;;1.00;1.00;;;;;20.94;100.00;100254.81;5038832;28;45490;-84
2023/07/24 05:43:27;;;;;;;;;2.33;2.00;;;;;20.90;100.00;100245.16;5036520;28;45255;-82
2023/07/24 05:45:53;;;;;;;;;1.00;1.00;;;;;20.91;100.00;100253.13;5037219;28;45485;-84
2023/07/24 05:48:19;;;;;;;;;0.67;0.67;;;;;20.89;100.00;100260.38;5036850;28;46400;-82
2023/07/24 05:50:45;;;;;;;;;1.33;1.33;;;;;20.88;100.00;100253.28;5037733;28;45408;-83
2023/07/24 05:53:10;;;;;;;;;2.33;2.00;;;;;20.89;100.00;100244.28;5025446;28;45245;-86
2023/07/24 05:55:35;;;;;;;;;3.00;1.33;;;;;20.88;100.00;100245.22;5036018;28;45402;-82
2023/07/24 05:58:01;;;;;;;;;1.00;1.00;;;;;20.88;100.00;100242.53;5020186;28;67602;-83
2023/07/24 06:00:26;;;;;;;;;1.00;1.00;;;;;20.85;100.00;100239.97;5028643;28;66473;-83
2023/07/24 06:02:53;;;;;;;;;1.67;1.67;;;;;20.83;100.00;100244.53;5033796;28;59305;-83
2023/07/24 06:05:19;;;;;;;;;2.00;2.00;;;;;20.79;100.00;100242.91;5036482;28;45330;-83
2023/07/24 06:07:45;;;;;;;;;0.67;0.67;;;;;20.73;100.00;100248.53;5023050;28;46302;-83
2023/07/24 06:10:10;;;;;;;;;4.00;2.33;;;;;20.70;100.00;100242.38;5025965;28;45297;-84
2023/07/24 06:12:35;;;;;;;;;1.00;1.00;;;;;20.68;100.00;100253.19;5029673;28;59388;-84
2023/07/24 06:15:01;;;;;;;;;2.00;1.00;;;;;20.66;100.00;100258.59;5018851;28;58445;-84
2023/07/24 06:17:26;;;;;;;;;1.00;1.00;;;;;20.62;100.00;100258.81;5012804;28;72341;-84
2023/07/24 06:19:51;;;;;;;;;1.67;1.00;;;;;20.64;100.00;100263.16;5030498;28;62692;-83
2023/07/24 06:22:17;;;;;;;;;2.33;1.00;;;;;20.62;100.00;100258.81;5039999;28;54716;-84
2023/07/24 06:24:42;;;;;;;;;0.67;0.67;;;;;20.63;100.00;100271.28;5014802;28;61969;-85
2023/07/24 06:27:07;;;;;;;;;1.67;0.00;;;;;20.61;100.00;100276.72;5031631;28;45488;-85
2023/07/24 06:29:33;;;;;;;;;2.00;1.00;;;;;20.65;100.00;100269.41;5036898;28;61407;-84
2023/07/24 06:31:58;;;;;;;;;1.00;1.00;;;;;20.62;100.00;100270.41;5010621;28;45409;-83
2023/07/24 06:34:24;;;;;;;;;0.00;0.00;;;;;20.64;100.00;100270.34;5036023;28;54679;-86
2023/07/24 06:36:49;;;;;;;;;0.67;0.67;;;;;20.61;100.00;100275.81;5035495;28;52783;-84
2023/07/24 06:39:14;;;;;;;;;1.33;1.33;;;;;20.61;100.00;100274.03;5037355;28;45210;-83
2023/07/24 06:41:40;;;;;;;;;1.00;1.00;;;;;20.60;100.00;100264.22;5023159;28;45257;-84
2023/07/24 06:44:05;;;;;;;;;1.00;1.00;;;;;20.58;100.00;100263.41;5016323;28;45215;-83
2023/07/24 06:46:30;;;;;;;;;2.00;0.67;;;;;20.59;100.00;100275.00;5035985;28;56889;-84
2023/07/24 06:48:56;;;;;;;;;1.00;1.00;;;;;20.60;100.00;100269.56;5047140;28;64143;-83
2023/07/24 06:51:21;;;;;;;;;1.00;1.00;;;;;20.61;100.00;100271.34;5035729;28;46586;-85
2023/07/24 06:53:46;;;;;;;;;2.33;1.00;;;;;20.63;100.00;100273.97;5033841;28;52603;-83
2023/07/24 06:56:12;;;;;;;;;1.00;1.00;;;;;20.64;100.00;100270.34;5034264;28;62492;-83
2023/07/24 06:58:37;;;;;;;;;1.00;1.00;;;;;20.63;100.00;100256.06;5038971;28;45460;-85
2023/07/24 07:01:08;;;;;;;;;0.33;0.33;;;;;20.69;100.00;100260.31;5030402;28;45264;-84
2023/07/24 07:03:37;;;;;;;;;3.00;1.00;;;;;20.76;100.00;100266.28;5033112;28;62353;-84
2023/07/24 07:06:02;;;;;;;;;0.00;0.00;;;;;20.77;100.00;100255.50;5010893;28;48026;-83
2023/07/24 07:08:31;;;;;;;;;1.00;1.00;;;;;20.82;100.00;100263.34;5020749;28;45172;-86
2023/07/24 07:10:57;;;;;;;;;1.00;1.00;;;;;20.89;100.00;100273.78;5004392;28;45524;-84
2023/07/24 07:13:23;;;;;;;;;1.00;1.00;;;;;21.01;100.00;100268.88;5027503;28;45779;-82
2023/07/24 07:15:48;;;;;;;;;2.00;0.00;;;;;21.07;100.00;100266.78;5034247;28;57636;-84
2023/07/24 07:18:14;;;;;;;;;1.00;1.00;;;;;21.10;100.00;100261.31;5019990;28;67146;-84
2023/07/24 07:20:53;;;;;;;;;1.33;1.00;;;;;21.16;100.00;100266.41;5030850;28;45502;-84
2023/07/24 07:23:20;;;;;;;;;1.00;1.00;;;;;21.21;100.00;100254.63;5034349;28;45210;-83
2023/07/24 07:25:45;;;;;;;;;1.00;1.00;;;;;21.27;100.00;100267.78;5035543;28;45349;-85
2023/07/24 07:28:12;;;;;;;;;1.67;1.00;;;;;21.32;100.00;100265.81;5018691;28;45309;-85
2023/07/24 07:30:37;;;;;;;;;1.33;1.00;;;;;21.35;100.00;100271.91;5019222;28;45453;-83
2023/07/24 07:33:02;;;;;;;;;0.67;0.00;;;;;21.43;100.00;100266.22;5030925;28;57151;-85
2023/07/24 07:35:28;;;;;;;;;2.00;1.00;;;;;21.49;100.00;100268.66;5023028;28;45786;-84
2023/07/24 07:37:53;;;;;;;;;1.00;1.00;;;;;21.53;100.00;100269.41;5024656;28;45493;-84
2023/07/24 07:40:19;;;;;;;;;3.00;0.00;;;;;21.51;100.00;100265.88;5031285;28;45480;-83
2023/07/24 07:42:45;;;;;;;;;1.00;1.00;;;;;21.48;100.00;100266.03;5025831;28;45511;-84
2023/07/24 07:45:10;;;;;;;;;1.33;0.33;;;;;21.47;100.00;100258.91;5034195;28;46012;-83
2023/07/24 07:47:36;;;;;;;;;1.00;1.00;;;;;21.47;100.00;100267.84;5035461;28;45230;-84
2023/07/24 07:50:01;;;;;;;;;1.67;1.00;;;;;21.44;100.00;100266.16;5015705;28;45507;-86
2023/07/24 07:52:26;;;;;;;;;1.00;1.00;;;;;21.48;100.00;100264.22;5018091;28;62038;-84
2023/07/24 07:54:52;;;;;;;;;1.00;1.00;;;;;21.58;100.00;100275.44;5017553;28;65259;-84
2023/07/24 07:57:17;;;;;;;;;1.00;1.00;;;;;21.57;100.00;100273.66;5032201;28;62952;-83
2023/07/24 07:59:42;;;;;;;;;1.00;1.00;;;;;21.54;100.00;100268.44;5027387;28;55426;-85
2023/07/24 08:02:08;;;;;;;;;1.00;1.00;;;;;21.56;100.00;100288.06;5027360;28;48174;-85
2023/07/24 08:04:33;;;;;;;;;1.00;1.00;;;;;21.56;100.00;100285.38;5034887;28;48158;-83
2023/07/24 08:06:58;;;;;;;;;1.33;1.00;;;;;21.57;100.00;100276.38;5034495;28;53110;-88
2023/07/24 08:09:24;;;;;;;;;2.00;2.00;;;;;21.56;100.00;100298.81;5029676;28;45334;-84
2023/07/24 08:11:51;;;;;;;;;1.00;1.00;;;;;21.52;100.00;100281.97;5017074;28;45441;-84
2023/07/24 08:14:16;;;;;;;;;1.00;1.00;;;;;21.55;100.00;100289.00;5031048;28;46221;-84
2023/07/24 08:16:41;;;;;;;;;2.00;1.00;;;;;21.55;100.00;100278.25;5026486;28;45487;-84
2023/07/24 08:19:07;;;;;;;;;2.00;2.00;;;;;21.55;100.00;100276.44;5025110;28;45365;-86
2023/07/24 08:21:32;;;;;;;;;0.33;0.33;;;;;21.60;100.00;100277.13;5029927;28;45331;-85
2023/07/24 08:23:58;;;;;;;;;1.00;1.00;;;;;21.65;100.00;100274.22;5024799;28;47632;-83
2023/07/24 08:26:25;;;;;;;;;3.00;1.67;;;;;21.75;100.00;100277.41;5034110;28;45446;-86
2023/07/24 08:28:51;;;;;;;;;2.00;0.00;;;;;21.84;100.00;100277.88;5015200;28;45274;-83
2023/07/24 08:31:16;;;;;;;;;1.00;1.00;;;;;21.93;100.00;100284.63;5019556;28;45257;-83
2023/07/24 08:33:42;;;;;;;;;1.00;1.00;;;;;22.03;100.00;100277.91;5034960;28;70863;-84
2023/07/24 08:36:08;;;;;;;;;1.33;0.00;;;;;22.12;100.00;100284.72;5034708;28;45339;-87
2023/07/24 08:38:34;;;;;;;;;3.00;1.67;;;;;22.17;100.00;100277.31;5016196;28;45240;-84
2023/07/24 08:41:10;;;;;;;;;1.00;1.00;;;;;22.29;100.00;100273.19;5005092;28;45597;-87
2023/07/24 08:43:36;;;;;;;;;1.00;1.00;;;;;22.29;100.00;100276.75;5033227;28;46349;-84
2023/07/24 08:46:03;;;;;;;;;1.00;1.00;;;;;22.26;100.00;100271.50;5034661;28;45343;-85
2023/07/24 08:48:37;;;;;;;;;0.33;0.33;;;;;22.30;100.00;100266.84;5034413;28;45435;-84
2023/07/24 08:51:07;;;;;;;;;2.00;1.00;;;;;22.29;100.00;100255.22;5018292;28;45517;-84
2023/07/24 08:53:36;;;;;;;;;0.00;0.00;;;;;22.34;100.00;100265.78;5030091;28;46645;-85
2023/07/24 08:56:09;;;;;;;;;1.67;1.00;;;;;22.45;100.00;100279.59;5023492;28;45365;-87
2023/07/24 08:58:35;;;;;;;;;2.00;1.00;;;;;22.42;100.00;100269.84;5019268;28;45554;-85
2023/07/24 09:01:01;;;;;;;;;1.00;1.00;;;;;22.40;100.00;100273.56;5015041;28;45383;-86
2023/07/24 09:03:27;;;;;;;;;1.00;1.00;;;;;22.35;100.00;100281.84;5010939;28;47452;-85
2023/07/24 09:05:53;;;;;;;;;1.00;1.00;;;;;22.40;100.00;100281.63;5028639;28;45474;-84
2023/07/24 09:08:42;;;;;;;;;0.00;0.00;;;;;22.49;100.00;100276.69;5014528;28;45464;-84
2023/07/24 09:11:08;;;;;;;;;1.00;1.00;;;;;22.59;100.00;100278.97;5022314;28;45405;-83
2023/07/24 09:13:36;;;;;;;;;1.00;1.00;;;;;22.62;100.00;100273.41;5022628;28;45593;-84
2023/07/24 09:16:02;;;;;;;;;0.00;0.00;;;;;22.58;100.00;100274.50;5029634;28;45510;-85
2023/07/24 09:18:41;;;;;;;;;3.00;1.00;;;;;22.66;100.00;100266.94;5020572;28;45468;-83
2023/07/24 09:21:06;;;;;;;;;1.00;1.00;;;;;22.82;100.00;100273.34;5022774;28;45409;-85
2023/07/24 09:23:32;;;;;;;;;1.00;1.00;;;;;23.00;100.00;100269.75;5024040;28;45381;-87
2023/07/24 09:25:57;;;;;;;;;1.00;1.00;;;;;23.10;100.00;100285.47;5031690;28;65205;-85
2023/07/24 09:28:24;;;;;;;;;2.33;0.00;;;;;23.12;100.00;100280.91;5021161;28;45294;-83
2023/07/24 09:30:54;;;;;;;;;1.00;1.00;;;;;23.11;100.00;100279.13;5024105;28;45702;-87
2023/07/24 09:33:19;;;;;;;;;1.00;1.00;;;;;23.11;100.00;100279.13;5034256;28;46875;-84
2023/07/24 09:35:44;;;;;;;;;1.00;1.00;;;;;23.17;100.00;100289.59;5017446;28;46742;-85
2023/07/24 09:38:11;;;;;;;;;0.00;0.00;;;;;23.25;100.00;100288.28;5019383;28;54746;-85
2023/07/24 09:40:45;;;;;;;;;1.67;1.67;;;;;23.31;100.00;100281.69;5017748;28;45596;-85
2023/07/24 09:43:22;;;;;;;;;1.00;1.00;;;;;23.38;100.00;100291.22;5037268;28;45633;-84
2023/07/24 09:45:48;;;;;;;;;2.00;2.00;;;;;23.41;100.00;100282.13;5008328;28;45263;-84
2023/07/24 09:48:15;;;;;;;;;1.67;1.00;;;;;23.43;100.00;100281.06;5037188;28;45220;-86
2023/07/24 09:50:54;;;;;;;;;1.00;1.00;;;;;23.34;100.00;100295.03;5035408;28;45468;-85
2023/07/24 09:53:39;;;;;;;;;4.33;1.67;;;;;23.24;100.00;100280.28;5034347;28;46427;-85
2023/07/24 09:56:08;;;;;;;;;1.00;1.00;;;;;23.16;100.00;100280.66;5023028;28;45222;-85
2023/07/24 09:58:37;;;;;;;;;1.00;0.00;;;;;23.19;100.00;100272.41;5010534;28;45426;-84
2023/07/24 10:01:08;;;;;;;;;2.33;1.00;;;;;23.32;100.00;100288.84;5031743;28;45266;-85
2023/07/24 10:03:43;;;;;;;;;2.00;1.00;;;;;23.33;100.00;100289.69;5032676;28;45499;-86
2023/07/24 10:06:12;;;;;;;;;0.00;0.00;;;;;23.39;100.00;100292.97;5029790;28;45480;-85
2023/07/24 10:08:39;;;;;;;;;2.00;1.00;;;;;23.49;100.00;100301.47;5030733;28;45354;-88
2023/07/24 10:11:04;;;;;;;;;4.00;1.00;;;;;23.51;100.00;100299.56;5024793;28;45405;-85
2023/07/24 10:13:31;;;;;;;;;2.00;0.67;;;;;23.45;100.00;100310.66;5019846;28;66730;-84
2023/07/24 10:15:56;;;;;;;;;0.67;0.67;;;;;23.40;100.00;100292.03;5022734;28;46267;-84
2023/07/24 10:18:29;;;;;;;;;0.00;0.00;;;;;23.35;100.00;100298.59;5032725;28;45290;-84
2023/07/24 10:21:03;;;;;;;;;1.00;1.00;;;;;23.21;100.00;100293.88;5033818;28;45520;-84
2023/07/24 10:23:29;;;;;;;;;1.33;1.33;;;;;23.10;100.00;100296.25;5036222;28;45742;-86
2023/07/24 10:25:54;;;;;;;;;1.00;1.00;;;;;23.05;100.00;100296.47;5029652;28;65446;-84
2023/07/24 10:28:30;;;;;;;;;1.00;1.00;;;;;23.15;100.00;100294.19;5031881;28;64165;-85
2023/07/24 10:30:56;;;;;;;;;1.00;1.00;;;;;23.28;100.00;100298.03;5030059;28;45654;-84
2023/07/24 10:33:22;;;;;;;;;1.00;1.00;;;;;23.48;100.00;100300.56;5033783;28;46159;-84
2023/07/24 10:35:54;;;;;;;;;1.00;1.00;;;;;23.66;100.00;100297.94;5019814;28;45231;-86
2023/07/24 10:38:20;;;;;;;;;1.00;1.00;;;;;23.81;100.00;100305.25;5020331;28;45499;-84
2023/07/24 10:40:48;;;;;;;;;1.00;1.00;;;;;23.90;100.00;100315.53;5012541;28;45466;-84
2023/07/24 10:43:18;;;;;;;;;5.00;1.00;;;;;23.90;100.00;100302.03;5031032;28;46730;-86
2023/07/24 10:45:51;;;;;;;;;0.00;0.00;;;;;23.85;100.00;100297.84;5016231;28;46227;-85
2023/07/24 10:48:17;;;;;;;;;0.00;0.00;;;;;23.80;100.00;100303.47;5017026;28;45452;-84
2023/07/24 10:50:48;;;;;;;;;1.00;1.00;;;;;23.84;100.00;100306.88;5022748;28;45257;-87
2023/07/24 10:53:15;;;;;;;;;2.00;2.00;;;;;23.87;100.00;100302.22;5036039;28;45877;-87
2023/07/24 10:55:41;;;;;;;;;1.00;1.00;;;;;23.87;100.00;100310.31;5005268;28;45424;-84
2023/07/24 10:58:07;;;;;;;;;2.00;2.00;;;;;23.96;100.00;100307.09;5035910;28;45510;-84
2023/07/24 11:00:32;;;;;;;;;1.67;1.00;;;;;24.07;100.00;100294.88;5022201;28;57646;-85
2023/07/24 11:02:58;;;;;;;;;0.67;0.00;;;;;24.22;100.00;100302.16;5031431;28;70764;-84
2023/07/24 11:05:24;;;;;;;;;2.00;2.00;;;;;24.31;100.00;100305.22;5034973;28;64093;-85
2023/07/24 11:07:49;;;;;;;;;2.67;1.00;;;;;24.46;100.00;100295.47;5029002;28;45547;-84
2023/07/24 11:10:19;;;;;;;;;1.00;1.00;;;;;24.55;100.00;100296.75;5008826;28;45636;-84
2023/07/24 11:12:45;;;;;;;;;2.00;2.00;;;;;24.53;100.00;100296.00;5035153;28;48053;-84
2023/07/24 11:15:12;;;;;;;;;1.33;1.33;;;;;24.48;100.00;100296.25;5024191;28;45357;-87
2023/07/24 11:17:40;;;;;;;;;0.67;0.67;;;;;24.49;100.00;100299.81;5019944;28;45237;-84